sensor_id;sensor_type;location;lat;lon;timestamp;pressure;altitude;pressure_sealevel;temperature;humidity
49216;BME280;45943;53.148;8.204;2023-05-22T00:01:21;101617.50;;;23.18;100.00
49216;BME280;45943;53.148;8.204;2023-05-22T00:03:51;101618.19;;;23.21;100.00
49216;BME280;45943;53.148;8.204;2023-05-22T00:06:19;101625.19;;;23.23;100.00
49216;BME280;45943;53.148;8.204;2023-05-22T00:08:45;101616.13;;;23.23;100.00
49216;BME280;45943;53.148;8.204;2023-05-22T00:11:11;101613.38;;;23.23;100.00
49216;BME280;45943;53.148;8.204;2023-05-22T00:13:37;101619.91;;;23.22;100.00
49216;BME280;45943;53.148;8.204;2023-05-22T00:16:03;101616.47;;;23.19;100.00
49216;BME280;45943;53.148;8.204;2023-05-22T00:18:29;101610.16;;;23.19;100.00
49216;BME280;45943;53.148;8.204;2023-05-22T00:20:55;101609.69;;;23.15;100.00
49216;BME280;45943;53.148;8.204;2023-05-22T00:23:23;101606.09;;;23.15;100.00
49216;BME280;45943;53.148;8.204;2023-05-22T00:25:49;101596.00;;;23.15;100.00
49216;BME280;45943;53.148;8.204;2023-05-22T00:28:15;101594.97;;;23.16;100.00
49216;BME280;45943;53.148;8.204;2023-05-22T00:30:41;101599.97;;;23.13;100.00
49216;BME280;45943;53.148;8.204;2023-05-22T00:33:07;101590.91;;;23.12;100.00
49216;BME280;45943;53.148;8.204;2023-05-22T00:35:33;101591.44;;;23.08;100.00
49216;BME280;45943;53.148;8.204;2023-05-22T00:38:01;101588.06;;;23.06;100.00
49216;BME280;45943;53.148;8.204;2023-05-22T00:40:28;101583.81;;;23.03;100.00
49216;BME280;45943;53.148;8.204;2023-05-22T00:42:54;101591.53;;;23.00;100.00
49216;BME280;45943;53.148;8.204;2023-05-22T00:45:20;101575.50;;;22.97;100.00
49216;BME280;45943;53.148;8.204;2023-05-22T00:47:48;101578.44;;;22.95;100.00
49216;BME280;45943;53.148;8.204;2023-05-22T00:50:13;101569.38;;;22.95;100.00
49216;BME280;45943;53.148;8.204;2023-05-22T00:52:41;101570.03;;;22.97;100.00
49216;BME280;45943;53.148;8.204;2023-05-22T00:55:09;101567.88;;;22.92;100.00
49216;BME280;45943;53.148;8.204;2023-05-22T00:57:37;101571.63;;;22.91;100.00
49216;BME280;45943;53.148;8.204;2023-05-22T01:00:06;101573.50;;;22.90;100.00
49216;BME280;45943;53.148;8.204;2023-05-22T01:02:35;101569.25;;;22.88;100.00
49216;BME280;45943;53.148;8.204;2023-05-22T01:05:02;101567.56;;;22.87;100.00
49216;BME280;45943;53.148;8.204;2023-05-22T01:07:30;101573.22;;;22.85;100.00
49216;BME280;45943;53.148;8.204;2023-05-22T01:09:56;101565.53;;;22.81;100.00
49216;BME280;45943;53.148;8.204;2023-05-22T01:15:16;101558.16;;;22.67;100.00
49216;BME280;45943;53.148;8.204;2023-05-22T01:17:41;101557.00;;;22.61;100.00
49216;BME280;45943;53.148;8.204;2023-05-22T01:20:13;101554.38;;;22.53;100.00
49216;BME280;45943;53.148;8.204;2023-05-22T01:31:35;101561.25;;;22.26;100.00
49216;BME280;45943;53.148;8.204;2023-05-22T01:34:04;101553.41;;;22.23;100.00
49216;BME280;45943;53.148;8.204;2023-05-22T01:36:33;101560.06;;;22.20;100.00
49216;BME280;45943;53.148;8.204;2023-05-22T01:39:01;101554.94;;;22.25;100.00
49216;BME280;45943;53.148;8.204;2023-05-22T01:41:33;101566.72;;;22.26;100.00
49216;BME280;45943;53.148;8.204;2023-05-22T01:44:00;101559.72;;;22.23;100.00
49216;BME280;45943;53.148;8.204;2023-05-22T01:46:27;101557.00;;;22.23;100.00
49216;BME280;45943;53.148;8.204;2023-05-22T01:48:54;101554.41;;;22.22;100.00
49216;BME280;45943;53.148;8.204;2023-05-22T01:57:06;101548.06;;;22.07;100.00
49216;BME280;45943;53.148;8.204;2023-05-22T01:59:45;101540.88;;;22.05;100.00
49216;BME280;45943;53.148;8.204;2023-05-22T02:02:15;101533.69;;;22.04;100.00
49216;BME280;45943;53.148;8.204;2023-05-22T02:04:44;101538.97;;;22.06;100.00
49216;BME280;45943;53.148;8.204;2023-05-22T02:07:13;101533.19;;;22.09;100.00
49216;BME280;45943;53.148;8.204;2023-05-22T02:09:44;101533.19;;;22.09;100.00
49216;BME280;45943;53.148;8.204;2023-05-22T02:12:12;101530.78;;;22.06;100.00
49216;BME280;45943;53.148;8.204;2023-05-22T02:14:38;101532.16;;;22.02;100.00
49216;BME280;45943;53.148;8.204;2023-05-22T02:17:06;101532.00;;;22.03;100.00
49216;BME280;45943;53.148;8.204;2023-05-22T02:19:33;101528.59;;;22.01;100.00
49216;BME280;45943;53.148;8.204;2023-05-22T02:22:00;101532.06;;;21.95;100.00
49216;BME280;45943;53.148;8.204;2023-05-22T02:24:27;101536.66;;;21.95;100.00
49216;BME280;45943;53.148;8.204;2023-05-22T02:26:56;101531.22;;;21.95;100.00
49216;BME280;45943;53.148;8.204;2023-05-22T02:29:22;101533.75;;;21.96;100.00
49216;BME280;45943;53.148;8.204;2023-05-22T02:31:48;101529.50;;;21.94;100.00
49216;BME280;45943;53.148;8.204;2023-05-22T02:34:14;101526.78;;;21.94;100.00
49216;BME280;45943;53.148;8.204;2023-05-22T02:36:41;101526.28;;;21.90;100.00
49216;BME280;45943;53.148;8.204;2023-05-22T02:39:07;101525.59;;;21.88;100.00
49216;BME280;45943;53.148;8.204;2023-05-22T02:41:33;101525.13;;;21.85;100.00
49216;BME280;45943;53.148;8.204;2023-05-22T02:43:59;101523.44;;;21.84;100.00
49216;BME280;45943;53.148;8.204;2023-05-22T02:46:25;101518.81;;;21.84;100.00
49216;BME280;45943;53.148;8.204;2023-05-22T02:48:51;101522.22;;;21.86;100.00
49216;BME280;45943;53.148;8.204;2023-05-22T02:51:17;101526.66;;;21.87;100.00
49216;BME280;45943;53.148;8.204;2023-05-22T02:53:43;101536.34;;;21.90;100.00
49216;BME280;45943;53.148;8.204;2023-05-22T02:56:09;101528.53;;;21.87;100.00
49216;BME280;45943;53.148;8.204;2023-05-22T02:58:36;101536.25;;;21.83;100.00
49216;BME280;45943;53.148;8.204;2023-05-22T03:01:03;101532.16;;;21.79;100.00
49216;BME280;45943;53.148;8.204;2023-05-22T03:03:33;101523.28;;;21.77;100.00
49216;BME280;45943;53.148;8.204;2023-05-22T03:05:59;101525.66;;;21.80;100.00
49216;BME280;45943;53.148;8.204;2023-05-22T03:08:26;101526.81;;;21.86;100.00
49216;BME280;45943;53.148;8.204;2023-05-22T03:10:54;101525.59;;;21.88;100.00
49216;BME280;45943;53.148;8.204;2023-05-22T03:13:21;101527.50;;;21.88;100.00
49216;BME280;45943;53.148;8.204;2023-05-22T03:15:47;101517.78;;;21.85;100.00
49216;BME280;45943;53.148;8.204;2023-05-22T03:18:13;101516.25;;;21.83;100.00
49216;BME280;45943;53.148;8.204;2023-05-22T03:20:39;101517.97;;;21.84;100.00
49216;BME280;45943;53.148;8.204;2023-05-22T03:23:05;101519.28;;;21.88;100.00
49216;BME280;45943;53.148;8.204;2023-05-22T03:25:31;101521.66;;;21.91;100.00
49216;BME280;45943;53.148;8.204;2023-05-22T03:27:57;101516.19;;;21.91;100.00
49216;BME280;45943;53.148;8.204;2023-05-22T03:30:23;101512.31;;;21.85;100.00
49216;BME280;45943;53.148;8.204;2023-05-22T03:32:49;101515.91;;;21.86;100.00
49216;BME280;45943;53.148;8.204;2023-05-22T03:35:17;101524.28;;;21.84;100.00
49216;BME280;45943;53.148;8.204;2023-05-22T03:37:45;101517.28;;;21.82;100.00
49216;BME280;45943;53.148;8.204;2023-05-22T03:40:11;101515.59;;;21.81;100.00
49216;BME280;45943;53.148;8.204;2023-05-22T03:42:37;101511.47;;;21.85;100.00
49216;BME280;45943;53.148;8.204;2023-05-22T03:45:03;101506.69;;;21.87;100.00
49216;BME280;45943;53.148;8.204;2023-05-22T03:47:30;101504.47;;;21.82;100.00
49216;BME280;45943;53.148;8.204;2023-05-22T03:49:56;101518.31;;;21.81;100.00
49216;BME280;45943;53.148;8.204;2023-05-22T03:52:21;101510.31;;;21.79;100.00
49216;BME280;45943;53.148;8.204;2023-05-22T03:54:47;101508.59;;;21.78;100.00
49216;BME280;45943;53.148;8.204;2023-05-22T03:57:13;101511.16;;;21.80;100.00
49216;BME280;45943;53.148;8.204;2023-05-22T03:59:40;101515.25;;;21.84;100.00
49216;BME280;45943;53.148;8.204;2023-05-22T04:02:06;101516.09;;;21.84;100.00
49216;BME280;45943;53.148;8.204;2023-05-22T04:04:32;101523.78;;;21.81;100.00
49216;BME280;45943;53.148;8.204;2023-05-22T04:07:03;101516.81;;;21.78;100.00
49216;BME280;45943;53.148;8.204;2023-05-22T04:09:33;101519.53;;;21.78;100.00
49216;BME280;45943;53.148;8.204;2023-05-22T04:12:00;101524.63;;;21.81;100.00
49216;BME280;45943;53.148;8.204;2023-05-22T04:14:27;101520.38;;;21.79;100.00
49216;BME280;45943;53.148;8.204;2023-05-22T04:16:53;101524.50;;;21.74;100.00
49216;BME280;45943;53.148;8.204;2023-05-22T04:19:19;101512.75;;;21.74;100.00
49216;BME280;45943;53.148;8.204;2023-05-22T04:21:45;101522.06;;;21.80;100.00
49216;BME280;45943;53.148;8.204;2023-05-22T04:24:12;101521.56;;;21.84;100.00
49216;BME280;45943;53.148;8.204;2023-05-22T04:26:38;101528.72;;;21.85;100.00
49216;BME280;45943;53.148;8.204;2023-05-22T04:29:04;101522.22;;;21.86;100.00
49216;BME280;45943;53.148;8.204;2023-05-22T04:31:35;101520.53;;;21.85;100.00
49216;BME280;45943;53.148;8.204;2023-05-22T04:34:01;101516.94;;;21.85;100.00
49216;BME280;45943;53.148;8.204;2023-05-22T04:36:27;101511.28;;;21.86;100.00
49216;BME280;45943;53.148;8.204;2023-05-22T04:38:53;101512.50;;;21.84;100.00
49216;BME280;45943;53.148;8.204;2023-05-22T04:41:20;101508.22;;;21.81;100.00
49216;BME280;45943;53.148;8.204;2023-05-22T04:43:52;101509.63;;;21.77;100.00
49216;BME280;45943;53.148;8.204;2023-05-22T04:46:18;101497.03;;;21.76;100.00
49216;BME280;45943;53.148;8.204;2023-05-22T04:48:45;101505.41;;;21.74;100.00
49216;BME280;45943;53.148;8.204;2023-05-22T04:51:14;101503.50;;;21.75;100.00
49216;BME280;45943;53.148;8.204;2023-05-22T04:53:40;101500.59;;;21.76;100.00
49216;BME280;45943;53.148;8.204;2023-05-22T04:56:06;101502.28;;;21.77;100.00
49216;BME280;45943;53.148;8.204;2023-05-22T04:58:32;101505.03;;;21.77;100.00
49216;BME280;45943;53.148;8.204;2023-05-22T05:00:58;101497.88;;;21.76;100.00
49216;BME280;45943;53.148;8.204;2023-05-22T05:03:24;101499.25;;;21.72;100.00
49216;BME280;45943;53.148;8.204;2023-05-22T05:05:50;101502.84;;;21.73;100.00
49216;BME280;45943;53.148;8.204;2023-05-22T05:08:16;101499.56;;;21.77;100.00
49216;BME280;45943;53.148;8.204;2023-05-22T05:10:42;101501.75;;;21.82;100.00
49216;BME280;45943;53.148;8.204;2023-05-22T05:13:08;101506.00;;;21.85;100.00
49216;BME280;45943;53.148;8.204;2023-05-22T05:15:34;101515.25;;;21.84;100.00
49216;BME280;45943;53.148;8.204;2023-05-22T05:18:00;101513.59;;;21.74;100.00
49216;BME280;45943;53.148;8.204;2023-05-22T05:20:26;101512.78;;;21.66;100.00
49216;BME280;45943;53.148;8.204;2023-05-22T05:22:52;101524.03;;;21.63;100.00
49216;BME280;45943;53.148;8.204;2023-05-22T05:25:18;101524.56;;;21.66;100.00
49216;BME280;45943;53.148;8.204;2023-05-22T05:27:44;101528.28;;;21.73;100.00
49216;BME280;45943;53.148;8.204;2023-05-22T05:30:11;101533.00;;;21.80;100.00
49216;BME280;45943;53.148;8.204;2023-05-22T05:32:37;101527.00;;;21.84;100.00
49216;BME280;45943;53.148;8.204;2023-05-22T05:35:03;101535.22;;;21.84;100.00
49216;BME280;45943;53.148;8.204;2023-05-22T05:37:29;101544.59;;;21.82;100.00
49216;BME280;45943;53.148;8.204;2023-05-22T05:39:55;101542.59;;;21.75;100.00
49216;BME280;45943;53.148;8.204;2023-05-22T05:42:21;101557.47;;;21.73;100.00
49216;BME280;45943;53.148;8.204;2023-05-22T05:44:47;101555.91;;;21.70;100.00
49216;BME280;45943;53.148;8.204;2023-05-22T05:47:13;101549.63;;;21.70;100.00
49216;BME280;45943;53.148;8.204;2023-05-22T05:49:39;101547.41;;;21.73;100.00
49216;BME280;45943;53.148;8.204;2023-05-22T05:52:05;101552.34;;;21.70;100.00
49216;BME280;45943;53.148;8.204;2023-05-22T05:54:32;101554.75;;;21.73;100.00
49216;BME280;45943;53.148;8.204;2023-05-22T05:56:58;101554.88;;;21.71;100.00
49216;BME280;45943;53.148;8.204;2023-05-22T05:59:24;101555.06;;;21.70;100.00
49216;BME280;45943;53.148;8.204;2023-05-22T06:01:50;101557.47;;;21.73;100.00
49216;BME280;45943;53.148;8.204;2023-05-22T06:04:16;101550.78;;;21.75;100.00
49216;BME280;45943;53.148;8.204;2023-05-22T06:06:42;101560.00;;;21.74;100.00
49216;BME280;45943;53.148;8.204;2023-05-22T06:09:09;101560.34;;;21.71;100.00
49216;BME280;45943;53.148;8.204;2023-05-22T06:11:35;101564.34;;;21.61;100.00
49216;BME280;45943;53.148;8.204;2023-05-22T06:14:01;101565.56;;;21.58;100.00
49216;BME280;45943;53.148;8.204;2023-05-22T06:16:27;101567.09;;;21.53;100.00
49216;BME280;45943;53.148;8.204;2023-05-22T06:18:54;101562.41;;;21.38;100.00
49216;BME280;45943;53.148;8.204;2023-05-22T06:21:21;101561.22;;;21.33;100.00
49216;BME280;45943;53.148;8.204;2023-05-22T06:23:49;101555.94;;;21.31;100.00
49216;BME280;45943;53.148;8.204;2023-05-22T06:26:15;101543.13;;;21.32;100.00
49216;BME280;45943;53.148;8.204;2023-05-22T06:28:45;101546.41;;;21.27;100.00
49216;BME280;45943;53.148;8.204;2023-05-22T06:31:11;101552.72;;;21.19;100.00
49216;BME280;45943;53.148;8.204;2023-05-22T06:33:37;101542.34;;;21.15;100.00
49216;BME280;45943;53.148;8.204;2023-05-22T06:36:05;101552.53;;;21.13;100.00
49216;BME280;45943;53.148;8.204;2023-05-22T06:38:31;101535.69;;;21.09;100.00
49216;BME280;45943;53.148;8.204;2023-05-22T06:40:57;101531.44;;;21.07;100.00
49216;BME280;45943;53.148;8.204;2023-05-22T06:43:23;101525.63;;;21.10;100.00
49216;BME280;45943;53.148;8.204;2023-05-22T06:45:49;101505.50;;;21.11;100.00
49216;BME280;45943;53.148;8.204;2023-05-22T06:48:16;101485.56;;;21.10;100.00
49216;BME280;45943;53.148;8.204;2023-05-22T06:50:42;101481.97;;;21.10;100.00
49216;BME280;45943;53.148;8.204;2023-05-22T06:53:07;101517.34;;;20.95;100.00
49216;BME280;45943;53.148;8.204;2023-05-22T06:55:33;101537.47;;;20.78;100.00
49216;BME280;45943;53.148;8.204;2023-05-22T06:57:59;101536.28;;;20.80;100.00
49216;BME280;45943;53.148;8.204;2023-05-22T07:00:26;101531.84;;;20.87;100.00
49216;BME280;45943;53.148;8.204;2023-05-22T07:02:52;101546.81;;;20.91;100.00
49216;BME280;45943;53.148;8.204;2023-05-22T07:05:18;101570.69;;;20.98;100.00
49216;BME280;45943;53.148;8.204;2023-05-22T07:07:44;101634.88;;;20.35;100.00
49216;BME280;45943;53.148;8.204;2023-05-22T07:10:10;101594.00;;;20.11;100.00
49216;BME280;45943;53.148;8.204;2023-05-22T07:12:36;101613.94;;;20.19;100.00
49216;BME280;45943;53.148;8.204;2023-05-22T07:15:02;101605.91;;;20.10;100.00
49216;BME280;45943;53.148;8.204;2023-05-22T07:17:29;101608.97;;;20.07;100.00
49216;BME280;45943;53.148;8.204;2023-05-22T07:19:56;101603.34;;;20.08;100.00
49216;BME280;45943;53.148;8.204;2023-05-22T07:22:22;101593.78;;;20.04;100.00
49216;BME280;45943;53.148;8.204;2023-05-22T07:24:48;101592.97;;;20.12;100.00
49216;BME280;45943;53.148;8.204;2023-05-22T07:27:14;101592.47;;;20.16;100.00
49216;BME280;45943;53.148;8.204;2023-05-22T07:29:40;101582.09;;;20.20;100.00
49216;BME280;45943;53.148;8.204;2023-05-22T07:32:06;101582.59;;;20.23;100.00
49216;BME280;45943;53.148;8.204;2023-05-22T07:34:32;101577.50;;;20.28;100.00
49216;BME280;45943;53.148;8.204;2023-05-22T07:36:59;101553.47;;;20.32;100.00
49216;BME280;45943;53.148;8.204;2023-05-22T07:39:30;101550.75;;;20.32;100.00
49216;BME280;45943;53.148;8.204;2023-05-22T07:41:56;101531.00;;;20.30;100.00
49216;BME280;45943;53.148;8.204;2023-05-22T07:44:22;101512.78;;;20.22;100.00
49216;BME280;45943;53.148;8.204;2023-05-22T07:46:48;101496.13;;;20.17;100.00
49216;BME280;45943;53.148;8.204;2023-05-22T07:49:16;101475.84;;;20.12;100.00
49216;BME280;45943;53.148;8.204;2023-05-22T07:51:45;101467.16;;;20.08;100.00
49216;BME280;45943;53.148;8.204;2023-05-22T07:54:11;101462.22;;;20.12;100.00
49216;BME280;45943;53.148;8.204;2023-05-22T07:56:41;101460.34;;;20.04;100.00
49216;BME280;45943;53.148;8.204;2023-05-22T07:59:07;101459.50;;;20.12;100.00
49216;BME280;45943;53.148;8.204;2023-05-22T08:01:39;101462.41;;;20.26;100.00
49216;BME280;45943;53.148;8.204;2023-05-22T08:04:06;101462.88;;;20.38;100.00
49216;BME280;45943;53.148;8.204;2023-05-22T08:06:32;101467.34;;;20.47;100.00
49216;BME280;45943;53.148;8.204;2023-05-22T08:08:59;101482.47;;;20.50;100.00
49216;BME280;45943;53.148;8.204;2023-05-22T08:11:27;101491.88;;;20.47;100.00
49216;BME280;45943;53.148;8.204;2023-05-22T08:13:53;101515.16;;;20.25;100.00
49216;BME280;45943;53.148;8.204;2023-05-22T08:16:19;101513.81;;;20.21;100.00
49216;BME280;45943;53.148;8.204;2023-05-22T08:18:45;101515.50;;;20.22;100.00
49216;BME280;45943;53.148;8.204;2023-05-22T08:21:11;101512.63;;;20.16;100.00
49216;BME280;45943;53.148;8.204;2023-05-22T08:23:37;101531.84;;;20.14;100.00
49216;BME280;45943;53.148;8.204;2023-05-22T08:26:04;101548.34;;;20.13;100.00
49216;BME280;45943;53.148;8.204;2023-05-22T08:28:33;101554.31;;;20.00;100.00
49216;BME280;45943;53.148;8.204;2023-05-22T08:30:59;101562.66;;;19.98;100.00
49216;BME280;45943;53.148;8.204;2023-05-22T08:33:25;101564.69;;;20.13;100.00
49216;BME280;45943;53.148;8.204;2023-05-22T08:35:51;101564.06;;;20.27;100.00
49216;BME280;45943;53.148;8.204;2023-05-22T08:38:17;101560.00;;;20.47;100.00
49216;BME280;45943;53.148;8.204;2023-05-22T08:40:46;101555.53;;;20.62;100.00
49216;BME280;45943;53.148;8.204;2023-05-22T08:43:14;101558.94;;;20.73;100.00
49216;BME280;45943;53.148;8.204;2023-05-22T08:45:40;101558.94;;;20.81;100.00
49216;BME280;45943;53.148;8.204;2023-05-22T08:48:10;101547.34;;;20.87;100.00
49216;BME280;45943;53.148;8.204;2023-05-22T08:50:40;101548.38;;;20.86;100.00
49216;BME280;45943;53.148;8.204;2023-05-22T08:53:11;101554.69;;;20.86;100.00
49216;BME280;45943;53.148;8.204;2023-05-22T08:55:40;101544.25;;;20.90;100.00
49216;BME280;45943;53.148;8.204;2023-05-22T08:58:07;101535.72;;;20.93;100.00
49216;BME280;45943;53.148;8.204;2023-05-22T09:00:35;101529.75;;;20.98;100.00
49216;BME280;45943;53.148;8.204;2023-05-22T09:03:02;101538.63;;;21.00;100.00
49216;BME280;45943;53.148;8.204;2023-05-22T09:05:32;101538.25;;;21.03;100.00
49216;BME280;45943;53.148;8.204;2023-05-22T09:07:58;101547.81;;;21.07;100.00
49216;BME280;45943;53.148;8.204;2023-05-22T09:10:26;101557.03;;;21.06;100.00
49216;BME280;45943;53.148;8.204;2023-05-22T09:12:58;101560.94;;;21.03;100.00
49216;BME280;45943;53.148;8.204;2023-05-22T09:15:36;101559.41;;;21.01;100.00
49216;BME280;45943;53.148;8.204;2023-05-22T09:18:03;101555.34;;;20.88;100.00
49216;BME280;45943;53.148;8.204;2023-05-22T09:20:33;101564.56;;;20.79;100.00
49216;BME280;45943;53.148;8.204;2023-05-22T09:23:00;101566.28;;;20.80;100.00
49216;BME280;45943;53.148;8.204;2023-05-22T09:25:27;101580.56;;;20.82;100.00
49216;BME280;45943;53.148;8.204;2023-05-22T09:27:53;101590.47;;;20.83;100.00
49216;BME280;45943;53.148;8.204;2023-05-22T09:30:19;101599.34;;;20.85;100.00
49216;BME280;45943;53.148;8.204;2023-05-22T09:32:47;101582.28;;;20.91;100.00
49216;BME280;45943;53.148;8.204;2023-05-22T09:35:13;101579.72;;;20.98;100.00
49216;BME280;45943;53.148;8.204;2023-05-22T09:37:39;101570.47;;;21.07;100.00
49216;BME280;45943;53.148;8.204;2023-05-22T09:40:11;101572.50;;;21.13;100.00
49216;BME280;45943;53.148;8.204;2023-05-22T09:42:38;101570.78;;;21.12;100.00
49216;BME280;45943;53.148;8.204;2023-05-22T09:45:09;101580.88;;;21.04;100.00
49216;BME280;45943;53.148;8.204;2023-05-22T09:47:35;101572.88;;;21.02;100.00
49216;BME280;45943;53.148;8.204;2023-05-22T09:50:03;101566.38;;;21.03;100.00
49216;BME280;45943;53.148;8.204;2023-05-22T09:52:35;101575.09;;;21.07;100.00
49216;BME280;45943;53.148;8.204;2023-05-22T09:55:05;101571.34;;;21.08;100.00
49216;BME280;45943;53.148;8.204;2023-05-22T09:57:40;101560.06;;;21.11;100.00
49216;BME280;45943;53.148;8.204;2023-05-22T10:00:11;101561.06;;;21.18;100.00
49216;BME280;45943;53.148;8.204;2023-05-22T10:02:43;101557.81;;;21.23;100.00
49216;BME280;45943;53.148;8.204;2023-05-22T10:05:14;101557.66;;;21.24;100.00
49216;BME280;45943;53.148;8.204;2023-05-22T10:07:47;101563.28;;;21.31;100.00
49216;BME280;45943;53.148;8.204;2023-05-22T10:10:15;101563.63;;;21.28;100.00
49216;BME280;45943;53.148;8.204;2023-05-22T10:12:50;101563.63;;;21.28;100.00
49216;BME280;45943;53.148;8.204;2023-05-22T10:15:20;101556.59;;;21.33;100.00
49216;BME280;45943;53.148;8.204;2023-05-22T10:17:47;101562.03;;;21.41;100.00
49216;BME280;45943;53.148;8.204;2023-05-22T10:20:14;101555.53;;;21.42;100.00
49216;BME280;45943;53.148;8.204;2023-05-22T10:22:41;101544.31;;;21.37;100.00
49216;BME280;45943;53.148;8.204;2023-05-22T10:25:07;101545.00;;;21.31;100.00
49216;BME280;45943;53.148;8.204;2023-05-22T10:27:33;101539.91;;;21.28;100.00
49216;BME280;45943;53.148;8.204;2023-05-22T10:30:01;101526.28;;;21.28;100.00
49216;BME280;45943;53.148;8.204;2023-05-22T10:32:44;101520.28;;;21.33;100.00
49216;BME280;45943;53.148;8.204;2023-05-22T10:37:46;101518.69;;;21.46;100.00
49216;BME280;45943;53.148;8.204;2023-05-22T10:40:18;101516.63;;;21.48;100.00
49216;BME280;45943;53.148;8.204;2023-05-22T10:43:00;101522.78;;;21.42;100.00
49216;BME280;45943;53.148;8.204;2023-05-22T10:45:27;101519.91;;;21.44;100.00
49216;BME280;45943;53.148;8.204;2023-05-22T10:48:00;101513.75;;;21.42;100.00
49216;BME280;45943;53.148;8.204;2023-05-22T10:50:30;101519.22;;;21.42;100.00
49216;BME280;45943;53.148;8.204;2023-05-22T10:55:52;101497.75;;;21.39;100.00
49216;BME280;45943;53.148;8.204;2023-05-22T10:58:27;101482.56;;;21.36;100.00
49216;BME280;45943;53.148;8.204;2023-05-22T11:03:54;101472.50;;;21.37;100.00
49216;BME280;45943;53.148;8.204;2023-05-22T11:09:01;101494.16;;;21.38;100.00
49216;BME280;45943;53.148;8.204;2023-05-22T11:11:44;101488.34;;;21.41;100.00
49216;BME280;45943;53.148;8.204;2023-05-22T11:14:11;101488.66;;;21.46;100.00
49216;BME280;45943;53.148;8.204;2023-05-22T11:16:40;101483.38;;;21.45;100.00
49216;BME280;45943;53.148;8.204;2023-05-22T11:19:08;101487.44;;;21.49;100.00
49216;BME280;45943;53.148;8.204;2023-05-22T11:21:40;101479.75;;;21.53;100.00
49216;BME280;45943;53.148;8.204;2023-05-22T11:24:08;101472.72;;;21.58;100.00
49216;BME280;45943;53.148;8.204;2023-05-22T11:26:34;101462.97;;;21.64;100.00
49216;BME280;45943;53.148;8.204;2023-05-22T11:29:01;101456.59;;;21.71;100.00
49216;BME280;45943;53.148;8.204;2023-05-22T11:31:28;101453.78;;;21.80;100.00
49216;BME280;45943;53.148;8.204;2023-05-22T11:33:54;101454.31;;;21.83;100.00
49216;BME280;45943;53.148;8.204;2023-05-22T11:36:21;101459.78;;;21.83;100.00
49216;BME280;45943;53.148;8.204;2023-05-22T11:38:47;101466.38;;;21.89;100.00
49216;BME280;45943;53.148;8.204;2023-05-22T11:41:14;101458.50;;;21.94;100.00
49216;BME280;45943;53.148;8.204;2023-05-22T11:43:43;101452.28;;;22.00;100.00
49216;BME280;45943;53.148;8.204;2023-05-22T11:46:09;101453.44;;;22.05;100.00
49216;BME280;45943;53.148;8.204;2023-05-22T11:48:40;101449.69;;;22.07;100.00
49216;BME280;45943;53.148;8.204;2023-05-22T11:51:07;101444.34;;;22.13;100.00
49216;BME280;45943;53.148;8.204;2023-05-22T11:53:34;101442.94;;;22.17;100.00
49216;BME280;45943;53.148;8.204;2023-05-22T11:56:04;101445.00;;;22.15;100.00
49216;BME280;45943;53.148;8.204;2023-05-22T11:58:30;101454.72;;;22.18;100.00
49216;BME280;45943;53.148;8.204;2023-05-22T12:01:03;101448.41;;;22.17;100.00
49216;BME280;45943;53.148;8.204;2023-05-22T12:03:30;101443.59;;;22.19;100.00
49216;BME280;45943;53.148;8.204;2023-05-22T12:05:56;101441.38;;;22.23;100.00
49216;BME280;45943;53.148;8.204;2023-05-22T12:08:23;101440.50;;;22.22;100.00
49216;BME280;45943;53.148;8.204;2023-05-22T12:10:52;101445.41;;;22.27;100.00
49216;BME280;45943;53.148;8.204;2023-05-22T12:13:22;101443.84;;;22.32;100.00
49216;BME280;45943;53.148;8.204;2023-05-22T12:15:53;101444.69;;;22.33;100.00
49216;BME280;45943;53.148;8.204;2023-05-22T12:18:20;101441.94;;;22.33;100.00
49216;BME280;45943;53.148;8.204;2023-05-22T12:20:50;101439.03;;;22.35;100.00
49216;BME280;45943;53.148;8.204;2023-05-22T12:23:20;101443.91;;;22.39;100.00
49216;BME280;45943;53.148;8.204;2023-05-22T12:25:56;101438.56;;;22.46;100.00
49216;BME280;45943;53.148;8.204;2023-05-22T12:28:23;101436.28;;;22.49;100.00
49216;BME280;45943;53.148;8.204;2023-05-22T12:30:52;101431.66;;;22.50;100.00
49216;BME280;45943;53.148;8.204;2023-05-22T12:33:29;101434.91;;;22.53;100.00
49216;BME280;45943;53.148;8.204;2023-05-22T12:35:56;101438.09;;;22.57;100.00
49216;BME280;45943;53.148;8.204;2023-05-22T12:38:23;101437.72;;;22.60;100.00
49216;BME280;45943;53.148;8.204;2023-05-22T12:40:51;101432.09;;;22.61;100.00
49216;BME280;45943;53.148;8.204;2023-05-22T12:43:19;101430.66;;;22.66;100.00
49216;BME280;45943;53.148;8.204;2023-05-22T12:45:47;101430.28;;;22.69;100.00
49216;BME280;45943;53.148;8.204;2023-05-22T12:48:13;101427.53;;;22.69;100.00
49216;BME280;45943;53.148;8.204;2023-05-22T12:50:39;101431.31;;;22.68;100.00
49216;BME280;45943;53.148;8.204;2023-05-22T12:53:05;101429.91;;;22.72;100.00
49216;BME280;45943;53.148;8.204;2023-05-22T12:55:32;101431.22;;;22.76;100.00
49216;BME280;45943;53.148;8.204;2023-05-22T12:57:59;101424.16;;;22.81;100.00
49216;BME280;45943;53.148;8.204;2023-05-22T13:00:25;101423.22;;;22.89;100.00
49216;BME280;45943;53.148;8.204;2023-05-22T13:02:51;101421.81;;;22.93;100.00
49216;BME280;45943;53.148;8.204;2023-05-22T13:05:17;101423.03;;;22.90;100.00
49216;BME280;45943;53.148;8.204;2023-05-22T13:07:43;101426.63;;;22.91;100.00
49216;BME280;45943;53.148;8.204;2023-05-22T13:10:09;101426.63;;;22.91;100.00